THY4RN EDDH-LTFM
Flight info
| Callsign | THY4RN |
|---|---|
| Flight time | N/A |
| Altitude | 35000 |
| Route | AMLUH2G AMLUH M852 DENIX DCT ZUCKA DCT OMELO DCT ODLIV DCT MAVOR DCT UVERA DCT BIVBU DCT BUVAK DCT RIXEN |
| Aircraft | A320/M-SDE3FGHIRWY/LB1 |
Departure
| Time | 2026-04-26 20:16 |
|---|---|
| Airport | Hamburg Helmut Schmidt Airport (EDDH) |
Arrival
| Time | N/A |
|---|---|
| Airport | İstanbul Airport (LTFM) |
| Time | Latitude | Longitude | Altitude | Speed | Heading |
|---|---|---|---|---|---|
| 2026-04-26 19:23 | 53.63206 | 10.00375 | 49 ft | 0 kts | 86° |
| 2026-04-26 19:52 | 53.63206 | 10.00374 | 48 ft | 0 kts | 86° |
| 2026-04-26 20:03 | 53.63206 | 10.00363 | 48 ft | 4 kts | 86° |
| 2026-04-26 20:03 | 53.63204 | 10.00322 | 60 ft | 1 kts | 86° |
| 2026-04-26 20:03 | 53.63204 | 10.00283 | 48 ft | 4 kts | 107° |
| 2026-04-26 20:04 | 53.63217 | 10.00249 | 42 ft | 4 kts | 162° |
| 2026-04-26 20:04 | 53.63224 | 10.00246 | 43 ft | 0 kts | 176° |
| 2026-04-26 20:12 | 53.63218 | 10.00246 | 48 ft | 3 kts | 176° |
| 2026-04-26 20:12 | 53.63191 | 10.00229 | 46 ft | 5 kts | 213° |
| 2026-04-26 20:12 | 53.63156 | 10.00189 | 47 ft | 7 kts | 202° |
| 2026-04-26 20:12 | 53.63102 | 10.00191 | 48 ft | 9 kts | 175° |
| 2026-04-26 20:13 | 53.63039 | 10.00152 | 48 ft | 11 kts | 214° |
| 2026-04-26 20:13 | 53.62970 | 10.00073 | 47 ft | 13 kts | 214° |
| 2026-04-26 20:13 | 53.62919 | 9.99990 | 48 ft | 8 kts | 242° |
| 2026-04-26 20:13 | 53.62901 | 9.99927 | 47 ft | 0 kts | 243° |
| 2026-04-26 20:14 | 53.62899 | 9.99920 | 48 ft | 0 kts | 242° |
| 2026-04-26 20:14 | 53.62891 | 9.99895 | 45 ft | 5 kts | 242° |
| 2026-04-26 20:14 | 53.62866 | 9.99814 | 45 ft | 11 kts | 247° |
| 2026-04-26 20:15 | 53.62896 | 9.99719 | 45 ft | 10 kts | 334° |
| 2026-04-26 20:15 | 53.63024 | 9.99613 | 45 ft | 47 kts | 333° |
| 2026-04-26 20:15 | 53.63511 | 9.99188 | 47 ft | 107 kts | 333° |
| 2026-04-26 20:15 | 53.64319 | 9.98489 | 53 ft | 152 kts | 333° |
| 2026-04-26 20:16 | 53.65307 | 9.97645 | 454 ft | 158 kts | 333° |
| 2026-04-26 20:16 | 53.66296 | 9.96817 | 1047 ft | 158 kts | 332° |
| 2026-04-26 20:16 | 53.67279 | 9.95973 | 1599 ft | 159 kts | 331° |
| 2026-04-26 20:16 | 53.68288 | 9.95105 | 1955 ft | 170 kts | 333° |
| 2026-04-26 20:17 | 53.69521 | 9.94655 | 2122 ft | 195 kts | 358° |
| 2026-04-26 20:17 | 53.69968 | 9.94660 | 2190 ft | 203 kts | 359° |
| 2026-04-26 20:17 | 53.71254 | 9.94687 | 2786 ft | 199 kts | 359° |
| 2026-04-26 20:17 | 53.72180 | 9.94900 | 3080 ft | 211 kts | 20° |
| 2026-04-26 20:18 | 53.73516 | 9.97327 | 3753 ft | 219 kts | 75° |
| 2026-04-26 20:18 | 53.73789 | 9.99699 | 4663 ft | 205 kts | 78° |
| 2026-04-26 20:18 | 53.74017 | 10.02177 | 4962 ft | 224 kts | 90° |
| 2026-04-26 20:18 | 53.73749 | 10.04858 | 5045 ft | 243 kts | 112° |
| 2026-04-26 20:19 | 53.72946 | 10.07444 | 5038 ft | 253 kts | 121° |
| 2026-04-26 20:19 | 53.72043 | 10.10119 | 5206 ft | 271 kts | 121° |
| 2026-04-26 20:19 | 53.71419 | 10.11960 | 5291 ft | 275 kts | 121° |
| 2026-04-26 20:19 | 53.70457 | 10.14815 | 5324 ft | 276 kts | 120° |
| 2026-04-26 20:20 | 53.69467 | 10.17591 | 5325 ft | 275 kts | 128° |
| 2026-04-26 20:20 | 53.68124 | 10.19861 | 5399 ft | 275 kts | 146° |
| 2026-04-26 20:20 | 53.66441 | 10.21382 | 6159 ft | 276 kts | 161° |
| 2026-04-26 20:20 | 53.64579 | 10.22312 | 6909 ft | 282 kts | 166° |
| 2026-04-26 20:21 | 53.62690 | 10.23188 | 7588 ft | 288 kts | 166° |
| 2026-04-26 20:21 | 53.60740 | 10.24088 | 8289 ft | 293 kts | 166° |
| 2026-04-26 20:21 | 53.58755 | 10.24999 | 8995 ft | 299 kts | 166° |
| 2026-04-26 20:21 | 53.56732 | 10.25926 | 9701 ft | 304 kts | 166° |
| 2026-04-26 20:22 | 53.54673 | 10.26871 | 10390 ft | 309 kts | 166° |
| 2026-04-26 20:22 | 53.52580 | 10.27831 | 10875 ft | 320 kts | 166° |
| 2026-04-26 20:22 | 53.50356 | 10.28846 | 11025 ft | 343 kts | 166° |
| 2026-04-26 20:22 | 53.47979 | 10.29929 | 11146 ft | 364 kts | 166° |
| 2026-04-26 20:23 | 53.45470 | 10.31074 | 11349 ft | 381 kts | 165° |
| 2026-04-26 20:23 | 53.42887 | 10.32254 | 11848 ft | 387 kts | 166° |
| 2026-04-26 20:23 | 53.40273 | 10.33444 | 12427 ft | 391 kts | 166° |
| 2026-04-26 20:23 | 53.37631 | 10.34636 | 13012 ft | 395 kts | 166° |
| 2026-04-26 20:24 | 53.34973 | 10.35829 | 13617 ft | 398 kts | 166° |
| 2026-04-26 20:24 | 53.32283 | 10.37035 | 14211 ft | 402 kts | 166° |
| 2026-04-26 20:24 | 53.29568 | 10.38248 | 14747 ft | 405 kts | 166° |
| 2026-04-26 20:24 | 53.26811 | 10.39475 | 15121 ft | 418 kts | 168° |
| 2026-04-26 20:25 | 53.24002 | 10.40721 | 15375 ft | 428 kts | 168° |
| 2026-04-26 20:25 | 53.22042 | 10.41592 | 15682 ft | 432 kts | 168° |
| 2026-04-26 20:25 | 53.18178 | 10.43320 | 16380 ft | 436 kts | 168° |
| 2026-04-26 20:25 | 53.15264 | 10.44775 | 16925 ft | 441 kts | 160° |
| 2026-04-26 20:26 | 53.12590 | 10.47329 | 17483 ft | 447 kts | 142° |
| 2026-04-26 20:26 | 53.10310 | 10.50871 | 18032 ft | 450 kts | 135° |
| 2026-04-26 20:26 | 53.08080 | 10.54563 | 18583 ft | 454 kts | 135° |
| 2026-04-26 20:26 | 53.05837 | 10.58298 | 19069 ft | 457 kts | 135° |
| 2026-04-26 20:27 | 53.03584 | 10.62054 | 19564 ft | 460 kts | 135° |
| 2026-04-26 20:27 | 53.01322 | 10.65818 | 20048 ft | 463 kts | 135° |
| 2026-04-26 20:27 | 52.99035 | 10.69610 | 20527 ft | 465 kts | 135° |
| 2026-04-26 20:27 | 52.96729 | 10.73411 | 20980 ft | 468 kts | 135° |
| 2026-04-26 20:28 | 52.94410 | 10.77219 | 21415 ft | 471 kts | 135° |
| 2026-04-26 20:28 | 52.92101 | 10.81002 | 21837 ft | 473 kts | 135° |
| 2026-04-26 20:28 | 52.89751 | 10.84845 | 22242 ft | 476 kts | 135° |
| 2026-04-26 20:28 | 52.87385 | 10.88705 | 22631 ft | 479 kts | 135° |
| 2026-04-26 20:29 | 52.85001 | 10.92588 | 23021 ft | 481 kts | 135° |
| 2026-04-26 20:29 | 52.82610 | 10.96483 | 23398 ft | 484 kts | 135° |
| 2026-04-26 20:29 | 52.80206 | 11.00398 | 23764 ft | 486 kts | 135° |
| 2026-04-26 20:29 | 52.77789 | 11.04326 | 24082 ft | 488 kts | 135° |
| 2026-04-26 20:30 | 52.75364 | 11.08259 | 24401 ft | 490 kts | 135° |
| 2026-04-26 20:30 | 52.72926 | 11.12208 | 24710 ft | 492 kts | 136° |
| 2026-04-26 20:30 | 52.70479 | 11.16167 | 25016 ft | 494 kts | 136° |
| 2026-04-26 20:30 | 52.68020 | 11.20141 | 25316 ft | 495 kts | 136° |
| 2026-04-26 20:31 | 52.65548 | 11.24122 | 25637 ft | 497 kts | 136° |
| 2026-04-26 20:31 | 52.63071 | 11.28101 | 25940 ft | 499 kts | 136° |
| 2026-04-26 20:31 | 52.60587 | 11.32090 | 26356 ft | 498 kts | 136° |
| 2026-04-26 20:31 | 52.58113 | 11.36059 | 26795 ft | 496 kts | 136° |
| 2026-04-26 20:32 | 52.55642 | 11.40014 | 27237 ft | 495 kts | 136° |
| 2026-04-26 20:32 | 52.53180 | 11.43946 | 27689 ft | 494 kts | 136° |
| 2026-04-26 20:32 | 52.50746 | 11.47829 | 28128 ft | 493 kts | 136° |
| 2026-04-26 20:32 | 52.48291 | 11.51743 | 28576 ft | 492 kts | 136° |
| 2026-04-26 20:33 | 52.45838 | 11.55645 | 29035 ft | 490 kts | 137° |
| 2026-04-26 20:33 | 52.43385 | 11.59536 | 29492 ft | 489 kts | 137° |
| 2026-04-26 20:33 | 52.40943 | 11.63401 | 29935 ft | 488 kts | 137° |
| 2026-04-26 20:33 | 52.38500 | 11.67260 | 30376 ft | 488 kts | 137° |
| 2026-04-26 20:34 | 52.36061 | 11.71110 | 30770 ft | 487 kts | 137° |
| 2026-04-26 20:34 | 52.33622 | 11.74957 | 31142 ft | 486 kts | 137° |
| 2026-04-26 20:34 | 52.31184 | 11.78801 | 31503 ft | 486 kts | 136° |
| 2026-04-26 20:34 | 52.28755 | 11.82629 | 31869 ft | 486 kts | 136° |
| 2026-04-26 20:35 | 52.26328 | 11.86442 | 32248 ft | 485 kts | 136° |
| 2026-04-26 20:35 | 52.23889 | 11.90263 | 32639 ft | 484 kts | 136° |
| 2026-04-26 20:35 | 52.21456 | 11.94067 | 32998 ft | 484 kts | 136° |
| 2026-04-26 20:35 | 52.19025 | 11.97860 | 33374 ft | 484 kts | 136° |
| 2026-04-26 20:36 | 52.16593 | 12.01653 | 33766 ft | 483 kts | 136° |
| 2026-04-26 20:36 | 52.14165 | 12.05440 | 34130 ft | 482 kts | 136° |
| 2026-04-26 20:36 | 52.11740 | 12.09211 | 34456 ft | 482 kts | 136° |
| 2026-04-26 20:36 | 52.09313 | 12.12975 | 34753 ft | 481 kts | 136° |
| 2026-04-26 20:37 | 52.06890 | 12.16723 | 35054 ft | 480 kts | 136° |
| 2026-04-26 20:37 | 52.04504 | 12.20409 | 35255 ft | 480 kts | 136° |
| 2026-04-26 20:37 | 52.02069 | 12.24164 | 35306 ft | 485 kts | 136° |
| 2026-04-26 20:38 | 51.97121 | 12.31801 | 35301 ft | 496 kts | 136° |
| 2026-04-26 20:38 | 51.92108 | 12.39517 | 35302 ft | 498 kts | 137° |
| 2026-04-26 20:39 | 51.87079 | 12.47212 | 35296 ft | 497 kts | 137° |
| 2026-04-26 20:39 | 51.82039 | 12.54890 | 35296 ft | 497 kts | 137° |
| 2026-04-26 20:40 | 51.77001 | 12.62565 | 35305 ft | 497 kts | 137° |
| 2026-04-26 20:40 | 51.71963 | 12.70220 | 35311 ft | 497 kts | 137° |
| 2026-04-26 20:41 | 51.66951 | 12.77793 | 35312 ft | 497 kts | 137° |
| 2026-04-26 20:41 | 51.61906 | 12.85395 | 35323 ft | 497 kts | 137° |
| 2026-04-26 20:42 | 51.56859 | 12.92965 | 35320 ft | 496 kts | 137° |
| 2026-04-26 20:42 | 51.51808 | 13.00519 | 35321 ft | 496 kts | 137° |
| 2026-04-26 20:43 | 51.46758 | 13.08055 | 35316 ft | 495 kts | 138° |
| 2026-04-26 20:43 | 51.41714 | 13.15560 | 35317 ft | 494 kts | 138° |
| 2026-04-26 20:44 | 51.36669 | 13.23048 | 35316 ft | 494 kts | 138° |
| 2026-04-26 20:44 | 51.31625 | 13.30508 | 35317 ft | 493 kts | 138° |
| 2026-04-26 20:45 | 51.26583 | 13.37942 | 35317 ft | 493 kts | 138° |
| 2026-04-26 20:45 | 51.21580 | 13.45287 | 35320 ft | 492 kts | 138° |
| 2026-04-26 20:46 | 51.16538 | 13.52668 | 35320 ft | 491 kts | 139° |
| 2026-04-26 20:46 | 51.11499 | 13.60022 | 35319 ft | 491 kts | 139° |
| 2026-04-26 20:47 | 51.06469 | 13.67347 | 35321 ft | 490 kts | 139° |
| 2026-04-26 20:47 | 51.01438 | 13.74655 | 35320 ft | 489 kts | 139° |
| 2026-04-26 20:48 | 50.96403 | 13.81928 | 35319 ft | 489 kts | 139° |
| 2026-04-26 20:48 | 50.91406 | 13.89134 | 35320 ft | 489 kts | 139° |
| 2026-04-26 20:49 | 50.86370 | 13.96366 | 35315 ft | 488 kts | 139° |
| 2026-04-26 20:49 | 50.81981 | 14.04550 | 35313 ft | 489 kts | 122° |
| 2026-04-26 20:50 | 50.78330 | 14.13645 | 35306 ft | 489 kts | 122° |
| 2026-04-26 20:50 | 50.74653 | 14.22688 | 35309 ft | 488 kts | 123° |
| 2026-04-26 20:51 | 50.70977 | 14.31684 | 35316 ft | 487 kts | 123° |
| 2026-04-26 20:51 | 50.67329 | 14.40606 | 35316 ft | 485 kts | 123° |
| 2026-04-26 20:52 | 50.63666 | 14.49533 | 35318 ft | 485 kts | 123° |
| 2026-04-26 20:52 | 50.60004 | 14.58448 | 35315 ft | 484 kts | 123° |
| 2026-04-26 20:53 | 50.56351 | 14.67323 | 35312 ft | 483 kts | 123° |
| 2026-04-26 20:53 | 50.52675 | 14.76184 | 35304 ft | 483 kts | 124° |
| 2026-04-26 20:54 | 50.49009 | 14.84944 | 35302 ft | 482 kts | 126° |
| 2026-04-26 20:54 | 50.44636 | 14.92867 | 35297 ft | 480 kts | 134° |
| 2026-04-26 20:55 | 50.40093 | 15.00537 | 35296 ft | 479 kts | 134° |
| 2026-04-26 20:55 | 50.35551 | 15.08184 | 35296 ft | 479 kts | 134° |
| 2026-04-26 20:56 | 50.31003 | 15.15812 | 35293 ft | 479 kts | 134° |
| 2026-04-26 20:56 | 50.26451 | 15.23421 | 35291 ft | 479 kts | 134° |
| 2026-04-26 20:57 | 50.22770 | 15.29578 | 35294 ft | 479 kts | 134° |